createdAt,value
2018-05-12T00:00:09.056Z,4.37
2018-05-12T00:01:11.970Z,4.10
2018-05-12T00:02:15.229Z,5.93
2018-05-12T00:03:17.697Z,4.72
2018-05-12T00:04:20.155Z,3.62
2018-05-12T00:05:22.860Z,4.12
2018-05-12T00:06:27.162Z,4.10
2018-05-12T00:07:29.640Z,4.30
2018-05-12T00:08:32.100Z,4.30
2018-05-12T00:09:36.072Z,4.28
2018-05-12T00:10:38.817Z,4.80
2018-05-12T00:11:41.341Z,4.10
2018-05-12T00:12:43.806Z,4.32
2018-05-12T00:13:46.270Z,4.00
2018-05-12T00:14:48.727Z,4.22
2018-05-12T00:15:51.489Z,4.20
2018-05-12T00:16:54.000Z,4.37
2018-05-12T00:17:56.464Z,4.22
2018-05-12T00:18:58.928Z,3.95
2018-05-12T00:20:01.393Z,3.97
2018-05-12T00:21:04.936Z,3.90
2018-05-12T00:22:07.436Z,4.53
2018-05-12T00:23:10.664Z,4.60
2018-05-12T00:24:13.123Z,4.75
2018-05-12T00:25:15.876Z,4.05
2018-05-12T00:26:18.648Z,4.40
2018-05-12T00:27:21.164Z,4.45
2018-05-12T00:28:23.628Z,4.25
2018-05-12T00:29:26.092Z,4.22
2018-05-12T00:30:29.530Z,4.40
2018-05-12T00:31:32.024Z,4.32
2018-05-12T00:32:34.507Z,4.32
2018-05-12T00:33:36.972Z,5.05
2018-05-12T00:34:39.435Z,4.40
2018-05-12T00:35:42.157Z,4.32
2018-05-12T00:36:44.692Z,4.35
2018-05-12T00:37:47.195Z,4.37
2018-05-12T00:38:49.656Z,4.50
2018-05-12T00:39:52.120Z,4.47
2018-05-12T00:40:54.785Z,4.45
2018-05-12T00:41:57.285Z,4.70
2018-05-12T00:42:59.808Z,4.70
2018-05-12T00:44:03.024Z,4.60
2018-05-12T00:45:05.769Z,4.12
2018-05-12T00:46:09.812Z,4.43
2018-05-12T00:47:12.292Z,4.40
2018-05-12T00:48:14.793Z,4.57
2018-05-12T00:49:17.258Z,5.03
2018-05-12T00:50:20.035Z,4.72
2018-05-12T00:51:22.702Z,4.90
2018-05-12T00:52:25.171Z,4.62
2018-05-12T00:53:27.649Z,4.50
2018-05-12T00:54:30.115Z,4.85
2018-05-12T00:55:32.770Z,4.57
2018-05-12T00:56:35.268Z,4.57
2018-05-12T00:57:37.728Z,4.57
2018-05-12T00:58:40.231Z,4.37
2018-05-12T00:59:43.463Z,4.80
2018-05-12T01:00:46.214Z,4.70
2018-05-12T01:01:48.712Z,4.55
2018-05-12T01:02:51.184Z,4.70
2018-05-12T01:03:53.676Z,4.55
2018-05-12T01:04:56.140Z,4.55
2018-05-12T01:05:59.663Z,4.45
2018-05-12T01:07:02.147Z,4.12
2018-05-12T01:08:04.611Z,4.45
2018-05-12T01:09:07.094Z,5.12
2018-05-12T01:10:10.340Z,4.47
2018-05-12T01:11:13.045Z,4.18
2018-05-12T01:12:15.528Z,4.30
2018-05-12T01:13:17.992Z,4.40
2018-05-12T01:14:20.468Z,4.37
2018-05-12T01:15:24.955Z,6.05
2018-05-12T01:16:28.972Z,4.80
2018-05-12T01:17:32.207Z,4.70
2018-05-12T01:18:34.672Z,4.28
2018-05-12T01:19:37.307Z,4.82
2018-05-12T01:20:40.815Z,4.78
2018-05-12T01:21:43.316Z,4.12
2018-05-12T01:22:45.779Z,4.03
2018-05-12T01:23:48.247Z,4.40
2018-05-12T01:24:50.732Z,4.00
2018-05-12T01:25:53.477Z,4.00
2018-05-12T01:26:55.951Z,4.40
2018-05-12T01:27:58.423Z,4.53
2018-05-12T01:29:00.887Z,4.28
2018-05-12T01:30:03.610Z,4.32
2018-05-12T01:31:06.639Z,3.80
2018-05-12T01:32:09.140Z,3.95
2018-05-12T01:33:12.379Z,4.37
2018-05-12T01:34:14.852Z,4.12
2018-05-12T01:35:17.670Z,3.78
2018-05-12T01:36:20.378Z,4.30
2018-05-12T01:37:22.854Z,4.07
2018-05-12T01:38:25.320Z,4.62
2018-05-12T01:39:27.792Z,4.07
2018-05-12T01:40:31.015Z,4.22
2018-05-12T01:41:33.510Z,3.75
2018-05-12T01:42:35.975Z,4.32
2018-05-12T01:43:38.435Z,4.55
2018-05-12T01:44:40.896Z,3.78
2018-05-12T01:45:44.054Z,4.30
2018-05-12T01:46:46.536Z,4.65
2018-05-12T01:47:49.003Z,3.97
2018-05-12T01:48:51.468Z,4.53
2018-05-12T01:49:53.928Z,4.07
2018-05-12T01:50:56.724Z,4.25
2018-05-12T01:51:59.200Z,4.07
2018-05-12T01:53:01.668Z,4.30
2018-05-12T01:54:04.127Z,4.00
2018-05-12T01:55:07.767Z,4.40
2018-05-12T01:56:12.215Z,4.07
2018-05-12T01:57:15.476Z,4.15
2018-05-12T01:58:17.944Z,4.22
2018-05-12T01:59:20.400Z,4.35
2018-05-12T02:00:23.163Z,4.28
2018-05-12T02:01:26.854Z,4.18
2018-05-12T02:02:29.336Z,4.25
2018-05-12T02:03:31.796Z,4.07
2018-05-12T02:04:34.255Z,4.20
2018-05-12T02:05:36.913Z,4.18
2018-05-12T02:06:39.433Z,4.32
2018-05-12T02:07:41.904Z,4.32
2018-05-12T02:08:44.368Z,4.35
2018-05-12T02:09:46.828Z,4.68
2018-05-12T02:10:49.645Z,3.90
2018-05-12T02:11:52.188Z,4.32
2018-05-12T02:12:55.423Z,4.60
2018-05-12T02:13:57.883Z,4.75
2018-05-12T02:15:00.348Z,4.30
2018-05-12T02:16:03.092Z,4.53
2018-05-12T02:17:05.611Z,4.53
2018-05-12T02:18:08.080Z,4.80
2018-05-12T02:19:10.539Z,4.25
2018-05-12T02:20:13.256Z,4.40
2018-05-12T02:21:16.028Z,4.60
2018-05-12T02:22:18.540Z,4.53
2018-05-12T02:23:21.004Z,4.75
2018-05-12T02:24:23.468Z,4.78
2018-05-12T02:25:26.243Z,4.00
2018-05-12T02:26:29.508Z,4.47
2018-05-12T02:27:31.996Z,4.62
2018-05-12T02:28:34.463Z,5.10
2018-05-12T02:29:38.472Z,4.20
2018-05-12T02:30:41.994Z,4.40
2018-05-12T02:31:44.555Z,4.22
2018-05-12T02:32:47.040Z,4.80
2018-05-12T02:33:49.500Z,4.30
2018-05-12T02:34:51.980Z,4.60
2018-05-12T02:35:54.622Z,5.12
2018-05-12T02:36:57.115Z,4.90
2018-05-12T02:37:59.609Z,4.68
2018-05-12T02:39:02.072Z,4.47
2018-05-12T02:40:04.785Z,4.75
2018-05-12T02:41:07.494Z,4.60
2018-05-12T02:42:09.978Z,4.80
2018-05-12T02:43:12.456Z,4.45
2018-05-12T02:44:15.688Z,4.65
2018-05-12T02:45:18.366Z,4.40
2018-05-12T02:46:21.829Z,4.60
2018-05-12T02:47:24.324Z,4.43
2018-05-12T02:48:26.810Z,5.78
2018-05-12T02:49:29.272Z,4.90
2018-05-12T02:50:32.037Z,4.57
2018-05-12T02:51:35.284Z,4.90
2018-05-12T02:52:37.748Z,4.35
2018-05-12T02:53:40.244Z,5.12
2018-05-12T02:54:42.716Z,4.68
2018-05-12T02:55:46.255Z,4.53
2018-05-12T02:56:48.752Z,4.60
2018-05-12T02:57:51.222Z,5.40
2018-05-12T02:58:53.735Z,4.70
2018-05-12T02:59:56.968Z,4.60
2018-05-12T03:00:59.638Z,4.65
2018-05-12T03:02:02.128Z,4.40
2018-05-12T03:03:04.596Z,4.37
2018-05-12T03:04:07.844Z,4.40
2018-05-12T03:05:10.586Z,4.53
2018-05-12T03:06:13.456Z,4.45
2018-05-12T03:07:15.957Z,4.70
2018-05-12T03:08:18.446Z,4.90
2018-05-12T03:09:20.921Z,4.65
2018-05-12T03:10:25.370Z,4.72
2018-05-12T03:11:28.133Z,4.80
2018-05-12T03:12:30.605Z,4.62
2018-05-12T03:13:33.068Z,4.90
2018-05-12T03:14:35.574Z,4.62
2018-05-12T03:15:38.602Z,4.85
2018-05-12T03:16:41.083Z,4.43
2018-05-12T03:17:43.544Z,4.55
2018-05-12T03:18:46.013Z,4.78
2018-05-12T03:19:48.499Z,4.40
2018-05-12T03:20:51.232Z,4.72
2018-05-12T03:21:53.749Z,5.07
2018-05-12T03:22:56.978Z,4.60
2018-05-12T03:23:59.442Z,4.87
2018-05-12T03:25:02.015Z,4.60
2018-05-12T03:26:04.885Z,4.40
2018-05-12T03:27:07.383Z,4.90
2018-05-12T03:28:09.847Z,5.10
2018-05-12T03:29:12.308Z,4.45
2018-05-12T03:30:15.053Z,4.87
2018-05-12T03:31:17.721Z,5.15
2018-05-12T03:32:20.209Z,4.32
2018-05-12T03:33:22.676Z,4.82
2018-05-12T03:34:25.143Z,5.30
2018-05-12T03:35:27.927Z,5.10
2018-05-12T03:36:31.183Z,4.43
2018-05-12T03:37:33.648Z,5.20
2018-05-12T03:38:36.112Z,5.12
2018-05-12T03:39:38.580Z,4.60
2018-05-12T03:40:41.329Z,5.10
2018-05-12T03:41:43.824Z,4.95
2018-05-12T03:42:46.288Z,5.00
2018-05-12T03:43:48.752Z,5.25
2018-05-12T03:44:51.215Z,5.22
2018-05-12T03:45:54.061Z,5.43
2018-05-12T03:46:56.564Z,5.10
2018-05-12T03:47:59.028Z,5.18
2018-05-12T03:49:01.495Z,5.80
2018-05-12T03:50:04.271Z,5.22
2018-05-12T03:51:07.849Z,5.30
2018-05-12T03:52:10.327Z,5.00
2018-05-12T03:53:12.791Z,5.30
2018-05-12T03:54:15.255Z,4.82
2018-05-12T03:55:18.390Z,5.10
2018-05-12T03:56:21.171Z,5.35
2018-05-12T03:57:23.651Z,4.90
2018-05-12T03:58:26.120Z,4.90
2018-05-12T03:59:28.654Z,5.85
2018-05-12T04:00:32.090Z,5.37
2018-05-12T04:01:35.356Z,5.60
2018-05-12T04:02:37.820Z,4.80
2018-05-12T04:03:40.283Z,5.50
2018-05-12T04:04:54.668Z,4.95
2018-05-12T04:06:10.201Z,4.80
2018-05-12T04:09:19.502Z,4.80
2018-05-12T04:12:08.285Z,4.95
2018-05-12T04:13:10.772Z,5.15
2018-05-12T04:14:13.237Z,5.30
2018-05-12T04:15:17.235Z,5.15
2018-05-12T04:16:19.959Z,5.18
2018-05-12T04:17:22.448Z,5.15
2018-05-12T04:18:24.932Z,5.22
2018-05-12T04:19:27.388Z,5.15
2018-05-12T04:20:30.123Z,5.35
2018-05-12T04:21:32.611Z,5.37
2018-05-12T04:22:35.077Z,5.32
2018-05-12T04:23:37.560Z,5.37
2018-05-12T04:24:40.024Z,4.82
2018-05-12T04:25:42.861Z,5.57
2018-05-12T04:26:45.424Z,5.18
2018-05-12T04:27:47.892Z,5.00
2018-05-12T04:28:50.386Z,4.43
2018-05-12T04:29:52.848Z,5.40
2018-05-12T04:30:55.504Z,5.25
2018-05-12T04:31:57.989Z,5.47
2018-05-12T04:33:00.447Z,4.90
2018-05-12T04:34:02.932Z,5.15
2018-05-12T04:35:05.750Z,4.90
2018-05-12T04:36:08.432Z,5.28
2018-05-12T04:37:10.916Z,4.62
2018-05-12T04:38:13.383Z,5.32
2018-05-12T04:39:15.872Z,4.90
2018-05-12T04:40:18.687Z,5.28
2018-05-12T04:41:21.353Z,5.25
2018-05-12T04:42:23.839Z,5.35
2018-05-12T04:43:26.317Z,5.45
2018-05-12T04:44:28.804Z,5.12
2018-05-12T04:45:31.626Z,4.40
2018-05-12T04:46:34.124Z,4.97
2018-05-12T04:47:36.588Z,5.10
2018-05-12T04:48:39.060Z,4.90
2018-05-12T04:49:41.535Z,4.85
2018-05-12T04:50:44.351Z,5.45
2018-05-12T04:51:47.387Z,4.95
2018-05-12T04:52:49.852Z,4.65
2018-05-12T04:53:52.320Z,4.95
2018-05-12T04:54:54.828Z,5.10
2018-05-12T04:55:57.491Z,5.43
2018-05-12T04:56:59.988Z,5.53
2018-05-12T04:58:02.457Z,4.93
2018-05-12T04:59:04.916Z,5.60
2018-05-12T05:00:08.065Z,5.12
2018-05-12T05:01:10.780Z,5.00
2018-05-12T05:02:13.259Z,5.10
2018-05-12T05:03:15.724Z,5.15
2018-05-12T05:04:18.196Z,5.35
2018-05-12T05:05:21.819Z,4.95
2018-05-12T05:06:25.818Z,5.20
2018-05-12T05:07:28.295Z,4.93
2018-05-12T05:08:30.760Z,4.95
2018-05-12T05:09:33.228Z,4.70
2018-05-12T05:10:36.086Z,4.80
2018-05-12T05:11:38.583Z,5.10
2018-05-12T05:12:41.048Z,5.30
2018-05-12T05:13:43.512Z,5.30
2018-05-12T05:14:45.981Z,5.00
2018-05-12T05:15:49.226Z,4.80
2018-05-12T05:16:51.719Z,4.90
2018-05-12T05:17:54.187Z,5.07
2018-05-12T05:18:56.651Z,4.82
2018-05-12T05:19:59.120Z,5.40
2018-05-12T05:21:01.890Z,5.50
2018-05-12T05:22:04.379Z,5.20
2018-05-12T05:23:07.619Z,5.47
2018-05-12T05:24:10.086Z,5.15
2018-05-12T05:25:12.865Z,5.30
2018-05-12T05:26:15.810Z,5.60
2018-05-12T05:27:19.029Z,5.18
2018-05-12T05:28:21.491Z,5.03
2018-05-12T05:29:24.780Z,5.05
2018-05-12T05:30:27.461Z,5.82
2018-05-12T05:31:31.468Z,5.30
2018-05-12T05:32:33.936Z,5.68
2018-05-12T05:33:36.400Z,4.95
2018-05-12T05:34:38.860Z,6.05
2018-05-12T05:35:41.614Z,6.20
2018-05-12T05:36:44.107Z,5.07
2018-05-12T05:37:46.568Z,5.93
2018-05-12T05:38:49.813Z,5.55
2018-05-12T05:39:52.274Z,5.35
2018-05-12T05:40:54.922Z,5.25
2018-05-12T05:41:57.436Z,5.32
2018-05-12T05:42:59.899Z,4.93
2018-05-12T05:44:02.371Z,5.35
2018-05-12T05:45:05.187Z,5.87
2018-05-12T05:46:07.857Z,5.35
2018-05-12T05:47:10.381Z,5.15
2018-05-12T05:48:13.609Z,5.85
2018-05-12T05:49:16.084Z,5.18
2018-05-12T05:50:18.916Z,5.45
2018-05-12T05:51:21.703Z,5.50
2018-05-12T05:52:24.940Z,5.50
2018-05-12T05:53:27.411Z,5.62
2018-05-12T05:54:29.873Z,5.60
2018-05-12T05:55:32.635Z,5.68
2018-05-12T05:56:35.115Z,5.35
2018-05-12T05:57:37.595Z,5.60
2018-05-12T05:58:40.903Z,5.87
2018-05-12T05:59:43.304Z,5.97
2018-05-12T06:00:46.657Z,6.00
2018-05-12T06:01:49.154Z,6.07
2018-05-12T06:02:51.647Z,5.85
2018-05-12T06:03:54.919Z,5.93
2018-05-12T06:04:57.392Z,5.50
2018-05-12T06:06:01.479Z,5.85
2018-05-12T06:07:04.820Z,6.12
2018-05-12T06:08:07.236Z,5.12
2018-05-12T06:09:09.700Z,5.82
2018-05-12T06:10:12.462Z,5.93
2018-05-12T06:11:15.126Z,5.82
2018-05-12T06:12:17.612Z,5.80
2018-05-12T06:13:20.096Z,5.40
2018-05-12T06:14:23.323Z,5.15
2018-05-12T06:15:25.976Z,5.53
2018-05-12T06:16:28.588Z,5.65
2018-05-12T06:17:31.079Z,5.47
2018-05-12T06:18:34.332Z,6.10
2018-05-12T06:19:36.796Z,5.40
2018-05-12T06:20:39.517Z,5.62
2018-05-12T06:21:42.015Z,5.18
2018-05-12T06:22:44.480Z,5.20
2018-05-12T06:23:46.968Z,6.05
2018-05-12T06:24:49.436Z,5.70
2018-05-12T06:25:52.182Z,5.20
2018-05-12T06:26:54.660Z,5.87
2018-05-12T06:27:57.232Z,6.00
2018-05-12T06:29:01.132Z,6.18
2018-05-12T06:30:03.775Z,6.20
2018-05-12T06:31:07.437Z,5.90
2018-05-12T06:32:09.936Z,6.15
2018-05-12T06:33:12.400Z,7.12
2018-05-12T06:34:14.899Z,7.95
2018-05-12T06:35:19.341Z,7.05
2018-05-12T06:36:22.129Z,7.12
2018-05-12T06:37:24.593Z,6.53
2018-05-12T06:38:27.088Z,6.22
2018-05-12T06:39:29.573Z,5.68
2018-05-12T06:40:33.915Z,5.78
2018-05-12T06:41:36.420Z,6.20
2018-05-12T06:42:38.880Z,6.22
2018-05-12T06:43:41.344Z,5.95
2018-05-12T06:44:43.828Z,6.10
2018-05-12T06:45:46.586Z,5.80
2018-05-12T06:46:49.060Z,6.22
2018-05-12T06:47:51.528Z,6.10
2018-05-12T06:48:53.993Z,6.50
2018-05-12T06:49:56.483Z,6.47
2018-05-12T06:50:59.890Z,5.72
2018-05-12T06:52:02.375Z,6.62
2018-05-12T06:53:04.831Z,6.87
2018-05-12T06:54:07.296Z,6.90
2018-05-12T06:55:10.052Z,6.37
2018-05-12T06:56:12.824Z,7.10
2018-05-12T06:57:15.324Z,6.15
2018-05-12T06:58:17.797Z,5.80
2018-05-12T06:59:20.260Z,5.97
2018-05-12T07:00:23.034Z,6.65
2018-05-12T07:01:27.343Z,6.45
2018-05-12T07:02:29.851Z,6.80
2018-05-12T07:03:33.075Z,5.80
2018-05-12T07:04:35.540Z,6.18
2018-05-12T07:05:38.320Z,6.37
2018-05-12T07:06:40.805Z,5.95
2018-05-12T07:07:43.263Z,5.95
2018-05-12T07:08:46.503Z,6.78
2018-05-12T07:09:48.992Z,5.87
2018-05-12T07:10:51.770Z,6.50
2018-05-12T07:11:55.759Z,6.47
2018-05-12T07:12:58.240Z,6.65
2018-05-12T07:14:00.708Z,7.45
2018-05-12T07:15:03.427Z,6.75
2018-05-12T07:16:06.300Z,7.35
2018-05-12T07:17:08.804Z,6.78
2018-05-12T07:18:11.284Z,6.70
2018-05-12T07:19:13.751Z,6.60
2018-05-12T07:20:16.570Z,6.57
2018-05-12T07:21:19.337Z,6.45
2018-05-12T07:22:21.827Z,5.62
2018-05-12T07:23:24.300Z,6.30
2018-05-12T07:24:26.768Z,6.32
2018-05-12T07:25:29.501Z,6.40
2018-05-12T07:26:32.012Z,6.35
2018-05-12T07:27:34.476Z,5.93
2018-05-12T07:28:36.944Z,5.78
2018-05-12T07:29:39.422Z,6.05
2018-05-12T07:30:43.581Z,6.43
2018-05-12T07:31:46.084Z,6.25
2018-05-12T07:32:48.567Z,5.90
2018-05-12T07:33:51.796Z,6.90
2018-05-12T07:34:54.263Z,6.53
2018-05-12T07:35:57.010Z,6.50
2018-05-12T07:36:59.531Z,6.85
2018-05-12T07:38:01.997Z,6.53
2018-05-12T07:39:04.477Z,6.40
2018-05-12T07:40:08.711Z,6.60
2018-05-12T07:41:11.482Z,6.40
2018-05-12T07:42:14.010Z,6.82
2018-05-12T07:43:16.475Z,6.30
2018-05-12T07:44:20.444Z,6.37
2018-05-12T07:45:23.080Z,6.57
2018-05-12T07:46:25.757Z,6.35
2018-05-12T07:47:28.268Z,5.80
2018-05-12T07:48:30.770Z,6.53
2018-05-12T07:49:33.208Z,6.20
2018-05-12T07:50:36.736Z,6.18
2018-05-12T07:51:39.261Z,5.75
2018-05-12T07:52:41.728Z,6.55
2018-05-12T07:53:44.961Z,6.05
2018-05-12T07:54:47.419Z,6.30
2018-05-12T07:55:50.075Z,5.95
2018-05-12T07:56:52.563Z,6.22
2018-05-12T07:57:55.052Z,5.68
2018-05-12T07:58:57.516Z,5.37
2018-05-12T07:59:59.982Z,6.12
2018-05-12T08:01:02.755Z,5.70
2018-05-12T08:02:06.000Z,6.10
2018-05-12T08:03:08.488Z,6.18
2018-05-12T08:04:10.951Z,5.95
2018-05-12T08:05:14.625Z,5.72
2018-05-12T08:06:17.424Z,5.97
2018-05-12T08:07:21.416Z,5.62
2018-05-12T08:08:23.912Z,5.93
2018-05-12T08:09:27.140Z,5.72
2018-05-12T08:10:29.904Z,5.97
2018-05-12T08:11:32.395Z,5.68
2018-05-12T08:12:34.860Z,5.53
2018-05-12T08:13:37.348Z,5.95
2018-05-12T08:14:39.811Z,5.50
2018-05-12T08:15:42.632Z,5.18
2018-05-12T08:16:45.127Z,5.18
2018-05-12T08:17:47.595Z,5.50
2018-05-12T08:18:50.079Z,5.45
2018-05-12T08:19:52.546Z,5.90
2018-05-12T08:20:55.261Z,5.20
2018-05-12T08:21:57.747Z,5.25
2018-05-12T08:23:00.219Z,4.87
2018-05-12T08:24:02.712Z,5.10
2018-05-12T08:25:06.180Z,5.32
2018-05-12T08:26:09.677Z,5.07
2018-05-12T08:27:12.160Z,5.45
2018-05-12T08:28:15.394Z,5.43
2018-05-12T08:29:17.876Z,4.95
2018-05-12T08:30:20.644Z,4.80
2018-05-12T08:31:23.136Z,5.35
2018-05-12T08:32:25.600Z,5.47
2018-05-12T08:33:28.059Z,4.80
2018-05-12T08:34:30.544Z,5.03
2018-05-12T08:35:34.059Z,4.90
2018-05-12T08:36:36.555Z,5.60
2018-05-12T08:37:39.023Z,4.80
2018-05-12T08:38:41.488Z,4.53
2018-05-12T08:39:43.976Z,4.75
2018-05-12T08:40:46.733Z,5.12
2018-05-12T08:41:49.980Z,4.18
2018-05-12T08:42:52.443Z,4.32
2018-05-12T08:43:54.911Z,4.65
2018-05-12T08:44:57.395Z,4.50
2018-05-12T08:45:59.908Z,4.20
2018-05-12T08:47:03.144Z,4.40
2018-05-12T08:48:05.612Z,4.53
2018-05-12T08:49:08.073Z,4.35
2018-05-12T08:50:12.694Z,4.20
2018-05-12T08:51:16.244Z,4.50
2018-05-12T08:52:18.736Z,4.15
2018-05-12T08:53:21.196Z,4.65
2018-05-12T08:54:23.659Z,3.87
2018-05-12T08:55:26.499Z,3.62
2018-05-12T08:56:30.452Z,3.90
2018-05-12T08:57:32.912Z,4.97
2018-05-12T08:58:35.375Z,4.50
2018-05-12T08:59:37.842Z,4.15
2018-05-12T09:00:40.611Z,3.87
2018-05-12T09:01:43.092Z,3.90
2018-05-12T09:02:45.707Z,4.25
2018-05-12T09:03:48.167Z,4.03
2018-05-12T09:04:50.636Z,4.53
2018-05-12T09:05:53.508Z,4.28
2018-05-12T09:06:56.008Z,4.07
2018-05-12T09:07:58.469Z,3.87
2018-05-12T09:09:00.934Z,4.40
2018-05-12T09:10:03.689Z,3.53
2018-05-12T09:11:06.407Z,3.65
2018-05-12T09:12:09.662Z,3.30
2018-05-12T09:13:12.128Z,3.40
2018-05-12T09:14:14.584Z,2.80
2018-05-12T09:15:17.221Z,3.03
2018-05-12T09:16:20.032Z,2.97
2018-05-12T09:17:22.522Z,3.15
2018-05-12T09:18:25.756Z,3.08
2018-05-12T09:19:28.223Z,2.90
2018-05-12T09:20:30.993Z,3.20
2018-05-12T09:21:33.496Z,3.00
2018-05-12T09:22:35.959Z,3.05
2018-05-12T09:23:38.424Z,3.30
2018-05-12T09:24:40.891Z,2.78
2018-05-12T09:25:43.645Z,2.83
2018-05-12T09:26:46.151Z,2.53
2018-05-12T09:27:49.384Z,2.53
2018-05-12T09:28:51.847Z,3.10
2018-05-12T09:29:54.316Z,3.10
2018-05-12T09:30:57.154Z,2.45
2018-05-12T09:31:59.658Z,2.00
2018-05-12T09:33:02.120Z,2.37
2018-05-12T09:34:04.584Z,2.78
2018-05-12T09:35:07.318Z,3.08
2018-05-12T09:36:10.090Z,2.28
2018-05-12T09:37:12.628Z,2.42
2018-05-12T09:38:16.588Z,2.28
2018-05-12T09:39:19.056Z,2.12
2018-05-12T09:40:21.792Z,2.40
2018-05-12T09:41:24.412Z,1.90
2018-05-12T09:42:28.038Z,1.90
2018-05-12T09:43:31.980Z,2.25
2018-05-12T09:44:34.444Z,1.92
2018-05-12T09:45:37.902Z,1.90
2018-05-12T09:46:40.387Z,2.28
2018-05-12T09:47:42.871Z,2.00
2018-05-12T09:48:45.335Z,2.00
2018-05-12T09:49:47.794Z,2.42
2018-05-12T09:50:50.530Z,2.10
2018-05-12T09:51:53.024Z,2.75
2018-05-12T09:52:55.513Z,2.67
2018-05-12T09:53:57.975Z,2.47
2018-05-12T09:55:00.438Z,2.30
2018-05-12T09:56:03.156Z,2.40
2018-05-12T09:57:05.648Z,2.85
2018-05-12T09:58:08.140Z,2.08
2018-05-12T09:59:10.604Z,2.70
2018-05-12T10:00:13.422Z,2.53
2018-05-12T10:01:16.944Z,2.50
2018-05-12T10:02:19.433Z,3.00
2018-05-12T10:03:21.938Z,2.92
2018-05-12T10:04:25.156Z,2.95
2018-05-12T10:05:27.893Z,2.50
2018-05-12T10:06:30.384Z,3.12
2018-05-12T10:07:32.847Z,2.85
2018-05-12T10:08:35.327Z,3.33
2018-05-12T10:09:37.879Z,2.45
2018-05-12T10:10:42.001Z,2.53
2018-05-12T10:11:45.259Z,2.70
2018-05-12T10:12:47.813Z,2.62
2018-05-12T10:13:50.216Z,2.65
2018-05-12T10:14:52.684Z,4.25
2018-05-12T10:15:55.403Z,2.75
2018-05-12T10:16:57.903Z,4.37
2018-05-12T10:18:00.383Z,2.95
2018-05-12T10:19:02.868Z,5.03
2018-05-12T10:20:06.386Z,4.00
2018-05-12T10:21:09.200Z,3.28
2018-05-12T10:22:12.480Z,5.50
2018-05-12T10:23:14.956Z,3.50
2018-05-12T10:24:17.438Z,6.35
2018-05-12T10:25:20.871Z,3.03
2018-05-12T10:26:24.551Z,2.70
2018-05-12T10:27:27.055Z,2.75
2018-05-12T10:28:29.518Z,2.92
2018-05-12T10:29:31.992Z,3.45
2018-05-12T10:30:34.719Z,3.50
2018-05-12T10:31:37.211Z,3.40
2018-05-12T10:32:39.680Z,3.50
2018-05-12T10:33:42.140Z,3.20
2018-05-12T10:34:44.630Z,3.62
2018-05-12T10:35:47.445Z,3.00
2018-05-12T10:36:49.940Z,4.05
2018-05-12T10:37:52.412Z,5.25
2018-05-12T10:38:54.964Z,5.82
2018-05-12T10:39:57.371Z,3.45
2018-05-12T10:41:00.074Z,2.72
2018-05-12T10:42:02.560Z,3.15
2018-05-12T10:43:05.027Z,3.10
2018-05-12T10:44:07.496Z,3.08
2018-05-12T10:45:10.237Z,3.87
2018-05-12T10:46:13.317Z,3.20
2018-05-12T10:47:15.811Z,3.85
2018-05-12T10:48:18.284Z,3.17
2018-05-12T10:49:20.755Z,2.97
2018-05-12T10:50:23.443Z,3.50
2018-05-12T10:51:26.998Z,3.10
2018-05-12T10:52:29.480Z,2.15
2018-05-12T10:53:31.953Z,2.58
2018-05-12T10:54:34.412Z,2.92
2018-05-12T10:55:38.055Z,3.65
2018-05-12T10:56:40.548Z,3.03
2018-05-12T10:57:43.012Z,3.85
2018-05-12T10:58:45.482Z,3.83
2018-05-12T10:59:47.952Z,3.47
2018-05-12T11:00:50.684Z,4.28
2018-05-12T11:01:53.211Z,3.60
2018-05-12T11:02:55.652Z,3.95
2018-05-12T11:03:58.112Z,7.05
2018-05-12T11:05:00.580Z,3.60
2018-05-12T11:06:03.414Z,3.03
2018-05-12T11:07:05.911Z,3.25
2018-05-12T11:08:08.378Z,3.87
2018-05-12T11:09:10.845Z,2.90
2018-05-12T11:10:13.616Z,3.75
2018-05-12T11:11:16.452Z,5.87
2018-05-12T11:12:18.952Z,3.45
2018-05-12T11:13:21.413Z,3.58
2018-05-12T11:14:23.880Z,3.20
2018-05-12T11:15:27.278Z,3.58
2018-05-12T11:16:30.552Z,3.92
2018-05-12T11:17:33.015Z,4.32
2018-05-12T11:18:35.479Z,3.10
2018-05-12T11:19:37.935Z,3.70
2018-05-12T11:20:40.580Z,4.15
2018-05-12T11:21:43.111Z,3.03
2018-05-12T11:22:46.331Z,3.40
2018-05-12T11:23:48.798Z,3.45
2018-05-12T11:24:51.267Z,4.62
2018-05-12T11:25:54.802Z,5.75
2018-05-12T11:26:58.084Z,4.68
2018-05-12T11:28:02.054Z,4.68
2018-05-12T11:29:04.528Z,5.40
2018-05-12T11:30:07.258Z,3.80
2018-05-12T11:31:10.031Z,3.25
2018-05-12T11:32:12.563Z,3.65
2018-05-12T11:33:15.803Z,3.22
2018-05-12T11:34:18.264Z,4.03
2018-05-12T11:35:21.115Z,5.05
2018-05-12T11:36:23.681Z,5.40
2018-05-12T11:37:26.188Z,5.55
2018-05-12T11:38:28.655Z,3.60
2018-05-12T11:39:31.124Z,3.03
2018-05-12T11:40:34.803Z,3.40
2018-05-12T11:41:37.301Z,5.30
2018-05-12T11:42:40.568Z,8.23
2018-05-12T11:43:43.044Z,7.25
2018-05-12T11:44:45.537Z,5.78
2018-05-12T11:45:48.931Z,4.05
2018-05-12T11:46:51.420Z,5.60
2018-05-12T11:47:53.936Z,14.20
2018-05-12T11:48:57.164Z,4.05
2018-05-12T11:49:59.651Z,3.80
2018-05-12T11:51:02.274Z,3.97
2018-05-12T11:52:04.759Z,2.87
2018-05-12T11:53:07.260Z,3.67
2018-05-12T11:54:10.580Z,4.18
2018-05-12T11:55:13.157Z,3.80
2018-05-12T11:56:15.826Z,8.95
2018-05-12T11:57:18.321Z,4.82
2018-05-12T11:58:20.891Z,3.45
2018-05-12T11:59:24.516Z,3.45
2018-05-12T12:00:28.579Z,2.80
2018-05-12T12:01:31.068Z,3.30
2018-05-12T12:02:33.557Z,3.83
2018-05-12T12:03:36.064Z,4.32
2018-05-12T12:04:38.512Z,5.05
2018-05-12T12:05:41.764Z,3.10
2018-05-12T12:06:44.243Z,2.90
2018-05-12T12:07:46.708Z,3.50
2018-05-12T12:08:49.201Z,3.35
2018-05-12T12:09:51.664Z,4.45
2018-05-12T12:10:54.361Z,3.10
2018-05-12T12:11:57.604Z,3.80
2018-05-12T12:13:00.068Z,3.40
2018-05-12T12:14:02.555Z,5.53
2018-05-12T12:15:05.303Z,3.35
2018-05-12T12:16:08.074Z,3.67
2018-05-12T12:17:10.561Z,3.22
2018-05-12T12:18:13.024Z,3.53
2018-05-12T12:19:15.516Z,3.22
2018-05-12T12:20:18.346Z,4.47
2018-05-12T12:21:21.931Z,3.45
2018-05-12T12:22:24.399Z,2.92
2018-05-12T12:23:26.881Z,4.20
2018-05-12T12:24:29.363Z,3.30
2018-05-12T12:25:32.139Z,4.07
2018-05-12T12:26:36.127Z,5.18
2018-05-12T12:27:38.592Z,3.17
2018-05-12T12:28:41.059Z,2.90
2018-05-12T12:29:43.543Z,3.20
2018-05-12T12:30:48.818Z,3.10
2018-05-12T12:31:51.318Z,3.58
2018-05-12T12:32:53.794Z,5.65
2018-05-12T12:33:56.270Z,3.12
2018-05-12T12:34:58.768Z,3.30
2018-05-12T12:36:01.549Z,3.75
2018-05-12T12:37:04.049Z,2.90
2018-05-12T12:38:06.516Z,2.78
2018-05-12T12:39:08.984Z,2.50
2018-05-12T12:40:11.816Z,3.65
2018-05-12T12:41:14.689Z,7.35
2018-05-12T12:42:17.196Z,2.80
2018-05-12T12:43:19.664Z,2.42
2018-05-12T12:44:22.897Z,7.30
2018-05-12T12:45:25.570Z,4.10
2018-05-12T12:46:28.864Z,6.65
2018-05-12T12:47:31.331Z,4.10
2018-05-12T12:48:33.804Z,6.15
2018-05-12T12:49:36.267Z,4.12
2018-05-12T12:50:39.060Z,2.90
2018-05-12T12:51:43.085Z,3.60
2018-05-12T12:52:45.524Z,3.20
2018-05-12T12:53:47.999Z,3.03
2018-05-12T12:54:50.464Z,5.40
2018-05-12T12:55:54.755Z,2.90
2018-05-12T12:56:58.749Z,3.28
2018-05-12T12:58:01.215Z,3.80
2018-05-12T12:59:03.688Z,3.15
2018-05-12T13:00:06.340Z,2.80
2018-05-12T13:01:09.948Z,3.58
2018-05-12T13:02:13.936Z,5.97
2018-05-12T13:03:16.409Z,2.90
2018-05-12T13:04:18.871Z,2.62
2018-05-12T13:05:21.607Z,3.40
2018-05-12T13:06:24.480Z,3.45
2018-05-12T13:07:26.988Z,3.20
2018-05-12T13:08:29.458Z,3.60
2018-05-12T13:09:31.927Z,2.55
2018-05-12T13:10:35.462Z,3.03
2018-05-12T13:11:37.969Z,3.00
2018-05-12T13:12:40.440Z,2.62
2018-05-12T13:13:42.911Z,3.20
2018-05-12T13:14:46.143Z,2.55
2018-05-12T13:15:48.910Z,2.92
2018-05-12T13:16:51.436Z,2.95
2018-05-12T13:17:53.913Z,3.17
2018-05-12T13:18:57.144Z,3.28
2018-05-12T13:19:59.615Z,2.33
2018-05-12T13:21:02.358Z,2.85
2018-05-12T13:22:04.913Z,2.83
2018-05-12T13:23:07.356Z,3.22
2018-05-12T13:24:10.596Z,2.90
2018-05-12T13:25:13.341Z,2.65
2018-05-12T13:26:16.010Z,2.95
2018-05-12T13:27:18.531Z,2.53
2018-05-12T13:28:22.504Z,2.70
2018-05-12T13:29:24.977Z,3.62
2018-05-12T13:30:27.723Z,7.53
2018-05-12T13:31:30.207Z,2.78
2018-05-12T13:32:32.700Z,2.80
2018-05-12T13:33:35.975Z,3.30
2018-05-12T13:34:38.419Z,2.80
2018-05-12T13:35:41.260Z,2.60
2018-05-12T13:36:43.760Z,2.47
2018-05-12T13:37:46.257Z,3.25
2018-05-12T13:38:49.500Z,3.28
2018-05-12T13:39:51.984Z,4.30
2018-05-12T13:40:55.423Z,4.47
2018-05-12T13:41:57.920Z,5.10
2018-05-12T13:43:00.412Z,3.25
2018-05-12T13:44:02.879Z,3.60
2018-05-12T13:45:06.287Z,2.65
2018-05-12T13:46:08.942Z,2.95
2018-05-12T13:47:11.428Z,2.55
2018-05-12T13:48:13.916Z,2.45
2018-05-12T13:49:16.380Z,3.08
2018-05-12T13:50:20.060Z,2.97
2018-05-12T13:51:22.591Z,3.03
2018-05-12T13:52:25.825Z,2.78
2018-05-12T13:53:28.328Z,4.43
2018-05-12T13:54:31.566Z,3.08
2018-05-12T13:55:34.325Z,3.08
2018-05-12T13:56:38.355Z,4.57
2018-05-12T13:57:40.824Z,3.30
2018-05-12T13:58:43.314Z,2.92